Latest Weather Observations for Oakey

IDQ60901

Issued at 2:01 pm EST Saturday 29 February 2020 (issued every 10 minutes, with the page automatically refreshed every 10 minutes)

About weather observations | Map of Brisbane area stations | Latest observations for Brisbane area | Other Formats
Station Details ID: 041359 Name: OAKEY AERO Lat: -27.40 Lon: 151.74 Height: 405.69 m
Data from the previous 72 hours. | See also: Recent months at Oakey
Date/Time
EST
Temp
°C
App
Temp
°C
Dew
Point
°C
Rel
Hum
%
Delta-T
°C
Wind Press
QNH
hPa
Press
MSL
hPa
Rain since
9am
mm
Dir  Spd
km/h
Gust
km/h
Spd
kts
Gust
kts
29/02:00pm 29.9 29.9 18.0 48 7.7 E 15 26 8 14 1013.7 1011.4 0.0
29/01:30pm 28.7 27.3 16.6 48 7.7 ENE 19 28 10 15 1014.0 1011.7 0.0
29/01:00pm 28.3 26.7 16.6 49 7.4 ESE 20 30 11 16 1014.4 1012.1 0.0
29/12:30pm 28.7 27.6 17.2 49 7.4 E 19 26 10 14 1014.7 1012.5 0.0
29/12:00pm 28.8 28.3 18.6 54 6.7 ENE 19 32 10 17 1015.1 1012.9 0.0
29/11:30am 27.3 26.0 17.2 54 6.4 E 20 30 11 16 1015.4 1013.2 0.0
29/11:00am 27.0 26.0 17.5 56 6.1 E 19 28 10 15 1015.8 1013.5 0.0
29/10:30am 27.1 26.2 18.1 58 5.8 E 20 30 11 16 1016.0 1013.7 0.0
29/10:00am 25.9 24.1 17.8 61 5.2 E 24 32 13 17 1016.1 1013.8 0.0
29/09:30am 26.5 24.5 18.4 61 5.2 ENE 26 35 14 19 1016.1 1013.8 0.0
29/09:00am 25.3 23.2 18.0 64 4.7 E 26 35 14 19 1015.8 1013.5 0.0
29/08:30am 25.0 23.0 18.4 66 4.2 E 26 35 14 19 1015.4 1013.2 0.0
29/08:00am 24.2 23.3 19.1 73 3.3 E 22 32 12 17 1015.6 1013.3 0.0
29/07:30am 23.3 22.5 19.2 78 2.7 E 22 32 12 17 1015.2 1013.0 0.0
29/07:00am 22.6 23.4 19.9 85 1.8 E 15 19 8 10 1015.2 1013.0 0.0
29/06:30am 21.8 24.3 20.3 91 1.0 ESE 7 11 4 6 1014.8 1012.6 0.0
29/06:00am 20.5 21.9 19.5 94 0.6 SE 11 13 6 7 1014.4 1012.1 0.0
29/05:30am 20.9 22.5 19.9 94 0.6 ESE 11 15 6 8 1014.0 1011.7 0.0
29/05:00am 21.1 23.1 20.8 98 0.2 ESE 11 17 6 9 1013.8 1011.5 0.0
29/04:30am 20.6 22.4 20.3 98 0.2 ENE 11 13 6 7 1013.5 1011.2 0.0
29/04:00am 20.4 22.1 20.1 98 0.2 E 11 13 6 7 1013.4 1011.1 0.0
29/03:30am 19.9 21.3 19.6 98 0.2 E 11 15 6 8 1013.4 1011.1 0.0
29/03:00am 19.2 22.4 18.9 98 0.2 CALM 0 0 0 0 1013.2 1010.9 0.0
29/02:30am 19.3 22.5 18.8 97 0.3 CALM 0 0 0 0 1013.0 1010.7 0.0
29/02:00am 19.3 22.5 18.8 97 0.3 CALM 0 0 0 0 1013.0 1010.7 0.0
29/01:30am 19.9 23.2 19.2 96 0.4 CALM 0 0 0 0 1013.3 1011.0 0.0
29/01:00am 20.0 23.3 19.0 94 0.6 CALM 0 0 0 0 1013.6 1011.3 0.0
29/12:30am 20.3 22.3 19.1 93 0.8 NE 7 7 4 4 1013.8 1011.5 0.0
29/12:00am 20.7 22.5 19.5 93 0.8 NE 9 11 5 6 1013.9 1011.6 0.0
 
Date/Time
EST
Temp
°C
App
Temp
°C
Dew
Point
°C
Rel
Hum
%
Delta-T
°C
Wind Press
QNH
hPa
Press
MSL
hPa
Rain since
9am
mm
Dir  Spd
km/h
Gust
km/h
Spd
kts
Gust
kts
28/11:30pm 20.8 22.6 19.5 92 0.8 NE 9 11 5 6 1013.3 1011.0 0.0
28/11:00pm 21.5 23.7 19.6 89 1.2 NE 7 9 4 5 1013.3 1011.0 0.0
28/10:30pm 22.1 24.1 20.0 88 1.4 NE 9 13 5 7 1013.5 1011.2 0.0
28/10:00pm 22.3 23.8 19.8 86 1.6 ENE 11 15 6 8 1013.4 1011.1 0.0
28/09:30pm 22.8 24.0 19.8 83 2.0 ENE 13 17 7 9 1013.1 1010.8 0.0
28/09:00pm 23.3 25.2 19.7 80 2.3 E 9 15 5 8 1013.1 1010.8 0.0
28/08:30pm 24.0 23.4 19.7 77 2.8 E 22 28 12 15 1012.5 1010.3 0.0
28/08:00pm 24.4 24.7 19.5 74 3.2 E 17 24 9 13 1011.7 1009.4 0.0
28/07:30pm 25.2 24.3 19.1 69 4.0 E 22 30 12 16 1011.0 1008.7 0.0
28/07:00pm 25.6 24.7 17.8 62 5.0 ESE 19 20 10 11 1010.4 1008.1 0.0
28/06:30pm 26.3 25.8 13.8 46 7.5 SSE 9 11 5 6 1009.7 1007.4 0.0
28/06:00pm 27.8 27.0 14.1 43 8.3 SSE 11 13 6 7 1009.3 1007.0 0.0
28/05:30pm 29.9 28.3 12.8 35 10.3 SSE 13 17 7 9 1009.2 1006.9 0.0
28/05:00pm 31.0 29.5 11.9 31 11.4 SSW 11 17 6 9 1008.8 1006.5 0.0
28/04:30pm 31.4 28.5 12.2 30 11.5 SSW 19 28 10 15 1008.3 1006.0 0.0
28/04:00pm 31.4 29.2 13.2 33 11.1 SSW 17 26 9 14 1008.3 1006.0 0.0
28/03:30pm 31.4 28.1 11.7 29 11.7 S 20 33 11 18 1008.4 1006.1 0.0
28/03:00pm 31.2 28.4 12.5 31 11.3 S 19 28 10 15 1008.4 1006.1 0.0
28/02:30pm 31.3 28.7 13.1 33 11.0 SSW 19 30 10 16 1008.5 1006.2 0.0
28/02:00pm 31.2 30.3 14.8 37 10.2 S 13 17 7 9 1008.6 1006.3 0.0
28/01:30pm 31.2 29.5 13.5 34 10.8 S 15 26 8 14 1009.0 1006.7 0.0
28/01:00pm 31.0 28.2 13.3 34 10.8 SSW 20 30 11 16 1009.2 1006.9 0.0
28/12:30pm 30.3 28.1 14.8 39 9.6 S 20 30 11 16 1009.6 1007.3 0.0
28/12:00pm 30.4 28.9 15.3 40 9.5 SSW 17 24 9 13 1009.8 1007.5 0.0
28/11:30am 30.2 29.7 16.9 44 8.5 SSW 15 26 8 14 1010.0 1007.7 0.0
28/11:00am 29.0 28.8 17.5 49 7.4 SSW 15 22 8 12 1010.2 1008.0 0.0
28/10:30am 28.2 28.8 18.6 56 6.3 WSW 13 20 7 11 1010.5 1008.2 0.0
28/10:00am 27.6 28.7 20.4 65 4.8 SW 15 24 8 13 1010.6 1008.3 0.0
28/09:30am 26.5 28.4 20.6 70 3.9 WSW 11 17 6 9 1010.6 1008.3 0.0
28/09:00am 25.6 27.8 21.1 76 3.0 WSW 11 15 6 8 1010.8 1008.5 0.0
28/08:30am 24.3 25.4 20.4 79 2.6 W 15 20 8 11 1010.8 1008.5 0.0
28/08:00am 22.8 25.5 20.3 86 1.6 WNW 6 9 3 5 1010.7 1008.4 0.0
28/07:30am 21.6 25.2 19.7 89 1.2 CALM 0 0 0 0 1010.6 1008.3 0.0
28/07:00am 20.1 23.7 19.8 98 0.2 CALM 0 0 0 0 1010.7 1008.4 0.0
28/06:30am 18.9 20.8 18.6 98 0.2 SE 6 9 3 5 1010.5 1008.2 0.0
28/06:00am 18.0 19.0 17.7 98 0.2 SE 9 11 5 6 1010.0 1007.7 0.0
28/05:30am 18.6 21.5 18.3 98 0.2 CALM 0 0 0 0 1010.0 1007.7 0.0
28/05:00am 18.2 21.0 17.9 98 0.2 CALM 0 0 0 0 1009.7 1007.4 0.0
28/04:30am 18.4 21.3 18.1 98 0.2 CALM 0 0 0 0 1009.4 1007.1 0.0
28/04:00am 18.8 20.1 18.5 98 0.2 ESE 9 13 5 7 1009.1 1006.8 0.0
28/03:30am 19.0 19.6 18.7 98 0.2 ESE 13 13 7 7 1009.1 1006.8 0.0
28/03:00am 19.2 21.1 18.9 98 0.2 SE 7 11 4 6 1009.3 1007.0 0.0
28/02:30am 19.5 21.1 19.2 98 0.2 SE 9 13 5 7 1009.5 1007.2 0.0
28/02:00am 19.8 22.1 19.5 98 0.2 SE 6 11 3 6 1009.6 1007.3 0.0
28/01:30am 20.1 22.4 19.8 98 0.2 SE 7 9 4 5 1009.7 1007.4 0.0
28/01:00am 19.6 21.5 18.9 96 0.4 SE 7 9 4 5 1009.6 1007.3 0.0
28/12:30am 19.7 20.8 18.9 95 0.5 E 11 13 6 7 1009.7 1007.4 0.0
28/12:00am 20.0 21.5 18.8 93 0.8 ENE 9 11 5 6 1009.7 1007.4 0.0
 
Date/Time
EST
Temp
°C
App
Temp
°C
Dew
Point
°C
Rel
Hum
%
Delta-T
°C
Wind Press
QNH
hPa
Press
MSL
hPa
Rain since
9am
mm
Dir  Spd
km/h
Gust
km/h
Spd
kts
Gust
kts
27/11:30pm 20.5 22.0 18.8 90 1.1 NE 9 11 5 6 1009.7 1007.4 0.0
27/11:00pm 20.9 22.0 18.8 88 1.3 ENE 11 13 6 7 1009.9 1007.6 0.0
27/10:30pm 21.7 22.2 19.3 86 1.5 ENE 15 20 8 11 1010.4 1008.1 0.0
27/10:00pm 22.1 22.6 19.3 84 1.8 NE 15 19 8 10 1010.4 1008.1 0.0
27/09:30pm 22.6 22.9 19.6 83 1.9 NE 17 22 9 12 1010.2 1008.0 0.0
27/09:00pm 22.6 22.7 19.9 85 1.8 NE 19 24 10 13 1010.2 1008.0 0.0
27/08:30pm 22.8 23.1 19.6 82 2.1 ENE 17 24 9 13 1010.2 1008.0 0.0
27/08:00pm 23.4 23.1 19.5 79 2.5 E 20 30 11 16 1009.6 1007.3 0.0
27/07:30pm 24.2 24.1 19.5 75 3.1 ENE 19 24 10 13 1008.7 1006.4 0.0
27/07:00pm 24.9 24.7 19.7 73 3.4 E 20 26 11 14 1008.2 1005.9 0.0
27/06:30pm 25.8 25.8 20.1 71 3.8 ENE 20 26 11 14 1008.0 1005.6 0.0
27/06:00pm 26.7 24.6 20.5 69 4.1 E 32 41 17 22 1007.8 1005.4 0.0
27/05:42pm 28.6 28.2 18.1 53 6.8 SE 17 44 9 24 1007.3 1005.0 0.0
27/05:30pm 30.0 29.0 14.5 38 9.6 SE 13 17 7 9 1007.1 1004.8 0.0
27/05:00pm 30.7 29.9 15.2 39 9.7 SSE 13 19 7 10 1006.7 1004.4 0.0
27/04:30pm 31.0 29.1 14.2 36 10.4 SSE 17 22 9 12 1006.8 1004.5 0.0
27/04:00pm 30.6 28.9 14.7 38 9.9 SE 17 24 9 13 1006.7 1004.4 0.0
27/03:30pm 31.9 30.4 14.1 34 11.0 SSE 15 22 8 12 1006.8 1004.5 0.0
27/03:00pm 32.1 29.7 13.8 33 11.3 S 19 28 10 15 1007.0 1004.7 0.0
27/02:30pm 32.2 32.5 16.9 40 9.8 SSW 11 20 6 11 1006.9 1004.6 0.0
27/02:00pm 31.8 30.3 15.3 37 10.4 SW 17 24 9 13 1007.2 1004.9 0.0
27/01:30pm 32.2 31.0 16.1 38 10.2 SW 17 30 9 16 1007.5 1005.2 0.0
27/01:00pm 31.4 29.9 15.4 38 10.1 SSW 17 26 9 14 1007.9 1005.5 0.0
27/12:30pm 31.3 30.1 16.1 40 9.6 SW 17 26 9 14 1008.3 1006.0 0.0
27/12:00pm 30.6 29.0 15.1 39 9.7 WSW 17 30 9 16 1008.7 1006.4 0.0
27/11:30am 30.5 29.3 16.1 41 9.1 SW 17 24 9 13 1009.2 1006.9 0.0
27/11:00am 29.7 29.7 18.2 50 7.5 WSW 15 24 8 13 1009.7 1007.4 0.0
27/10:30am 29.4 30.8 20.3 58 6.1 W 13 22 7 12 1010.1 1007.8 0.0
27/10:00am 28.2 29.1 20.0 61 5.5 W 15 20 8 11 1010.2 1008.0 0.0
27/09:30am 28.2 29.2 19.4 59 5.8 WNW 13 20 7 11 1010.4 1008.1 0.0
27/09:00am 27.6 29.7 20.2 64 4.9 WNW 9 13 5 7 1010.4 1008.1 0.0
27/08:30am 26.4 28.1 18.0 60 5.4 N 6 9 3 5 1010.1 1007.8 0.0
27/08:00am 24.9 25.3 18.1 66 4.4 NNE 13 15 7 8 1009.9 1007.6 0.0
27/07:30am 23.3 23.1 18.4 74 3.1 NNE 17 20 9 11 1009.7 1007.4 0.0
27/07:00am 21.7 22.9 19.1 85 1.7 NNE 11 15 6 8 1009.8 1007.5 0.0
27/06:30am 20.4 22.3 18.9 91 1.0 ENE 7 11 4 6 1009.9 1007.6 0.0
27/06:00am 19.9 20.5 18.7 93 0.8 ESE 13 20 7 11 1009.8 1007.5 0.0
27/05:30am 20.2 20.9 18.9 92 0.8 SE 13 20 7 11 1009.9 1007.6 0.0
27/05:00am 20.9 20.4 19.0 89 1.2 S 20 26 11 14 1010.0 1007.7 0.0
27/04:30am 20.8 23.4 20.5 98 0.2 S 7 9 4 5 1009.8 1007.5 0.0
27/04:00am 20.0 21.5 19.7 98 0.2 SSE 11 13 6 7 1009.3 1007.0 0.0
27/03:30am 20.0 22.3 19.5 97 0.3 SE 6 11 3 6 1009.0 1006.7 0.0
27/03:00am 20.5 24.1 19.7 95 0.5 CALM 0 4 0 2 1008.9 1006.6 0.0
27/02:30am 20.9 23.5 20.1 95 0.5 ESE 6 7 3 4 1009.4 1007.1 0.0
27/02:00am 21.4 23.7 20.6 95 0.5 SE 9 13 5 7 1009.6 1007.3 0.0
27/01:30am 21.9 24.7 20.9 94 0.7 ENE 7 11 4 6 1009.6 1007.3 0.0
27/01:00am 22.1 24.4 20.7 92 0.9 NE 9 11 5 6 1010.2 1008.0 0.0
27/12:30am 21.7 24.5 20.9 95 0.5 ESE 7 7 4 4 1010.7 1008.4 0.0
27/12:00am 21.7 24.1 20.9 95 0.5 ESE 9 11 5 6 1011.1 1008.8 0.0
 
Date/Time
EST
Temp
°C
App
Temp
°C
Dew
Point
°C
Rel
Hum
%
Delta-T
°C
Wind Press
QNH
hPa
Press
MSL
hPa
Rain since
9am
mm
Dir  Spd
km/h
Gust
km/h
Spd
kts
Gust
kts
26/11:30pm 21.1 22.8 20.1 94 0.7 E 11 13 6 7 1011.2 1008.9 0.0
26/11:00pm 21.2 23.6 20.0 93 0.8 E 7 11 4 6 1011.3 1009.0 0.0
26/10:30pm 21.6 24.6 20.1 91 1.0 ENE 4 9 2 5 1011.0 1008.7 0.0
26/10:00pm 21.9 24.0 20.2 90 1.1 N 9 11 5 6 1011.0 1008.7 0.0
26/09:30pm 22.4 24.6 20.3 88 1.4 NNE 9 13 5 7 1010.7 1008.4 0.0
26/09:00pm 22.3 24.4 20.2 88 1.4 E 9 11 5 6 1010.4 1008.1 0.0
26/08:30pm 22.5 24.9 20.8 90 1.1 ESE 9 11 5 6 1010.1 1007.8 0.0
26/08:00pm 23.2 25.5 20.7 86 1.7 E 9 9 5 5 1010.5 1008.2 0.0
26/07:30pm 22.9 25.1 20.4 86 1.6 ESE 9 11 5 6 1010.4 1008.1 0.0
26/07:00pm 24.0 25.0 20.3 80 2.4 NNE 15 19 8 10 1009.5 1007.2 0.0
26/06:30pm 24.7 24.8 20.0 75 3.1 NE 19 22 10 12 1009.3 1007.0 0.0
26/06:00pm 25.8 26.7 19.2 67 4.3 NE 13 17 7 9 1009.5 1007.2 0.0
26/05:30pm 26.4 26.7 18.8 63 4.9 ENE 15 17 8 9 1009.4 1007.1 0.0
26/05:00pm 27.3 28.0 19.6 62 5.1 E 15 20 8 11 1009.0 1006.7 0.0
26/04:30pm 27.4 28.8 19.5 62 5.2 ESE 11 17 6 9 1008.8 1006.5 0.0
26/04:00pm 27.7 28.7 19.5 61 5.4 SSE 13 17 7 9 1009.0 1006.7 0.0
26/03:30pm 27.2 27.9 18.8 60 5.5 S 13 17 7 9 1008.9 1006.6 0.0
26/03:00pm 27.3 27.4 18.3 58 5.8 S 15 20 8 11 1009.3 1007.0 0.0
26/02:30pm 28.1 28.4 18.8 57 6.1 W 15 19 8 10 1009.6 1007.3 0.0

Latest Capital City Observations: Canberra | Sydney | Melbourne | Brisbane | Adelaide | Perth | Hobart | Darwin

Other formats

Comma delimited format used in spreadsheet applications
http://www.bom.gov.au/fwo/IDQ60901/IDQ60901.94552.axf

JavaScript Object Notation format (JSON) in row-major order
http://www.bom.gov.au/fwo/IDQ60901/IDQ60901.94552.json

Data quality

Most of these data are generated automatically and are frequently updated. Quality checks on data are not normally performed. It is possible for incorrect values to appear. Refer to information at About Latest Weather Observations and please check the disclaimer before using these data.